Time;durP1;ratioP1;P1;durP2;ratioP2;P2;SDS_P1;SDS_P2;PMS_P1;PMS_P2;Temp;Humidity;BMP_temperature;BMP_pressure;BME280_temperature;BME280_humidity;BME280_pressure;Samples;Min_cycle;Max_cycle;Signal;HPM_P1;HPM_P2
2023/04/29 00:01:32;;;;;;;27.48;24.52;;;;;;;9.35;100.00;101384.53;5004659;28;20570;-61
2023/04/29 00:03:58;;;;;;;28.38;24.33;;;;;;;9.34;100.00;101385.59;5006562;28;20041;-61
2023/04/29 00:06:23;;;;;;;27.60;24.42;;;;;;;9.30;100.00;101385.16;5004839;28;20063;-61
2023/04/29 00:08:50;;;;;;;29.05;25.10;;;;;;;9.25;100.00;101384.09;5005573;28;20620;-61
2023/04/29 00:11:16;;;;;;;26.25;23.52;;;;;;;9.23;100.00;101392.53;5003418;28;20389;-61
2023/04/29 00:13:41;;;;;;;26.63;23.92;;;;;;;9.23;100.00;101389.78;5002974;28;20028;-61
2023/04/29 00:16:09;;;;;;;22.50;20.10;;;;;;;9.19;100.00;101394.00;5004660;28;20040;-61
2023/04/29 00:18:35;;;;;;;25.08;22.50;;;;;;;9.15;100.00;101400.94;5003403;28;20132;-61
2023/04/29 00:21:01;;;;;;;24.05;21.73;;;;;;;9.13;100.00;101396.72;5004804;28;20088;-61
2023/04/29 00:23:26;;;;;;;24.52;22.00;;;;;;;9.13;100.00;101405.78;5006259;28;20485;-61
2023/04/29 00:25:52;;;;;;;22.63;20.33;;;;;;;9.13;100.00;101403.06;5004939;28;20030;-62
2023/04/29 00:28:17;;;;;;;21.27;19.08;;;;;;;9.09;100.00;101399.88;5005620;28;20021;-61
2023/04/29 00:30:43;;;;;;;21.45;19.17;;;;;;;9.11;100.00;101405.13;5003821;28;20018;-62
2023/04/29 00:33:08;;;;;;;20.95;18.85;;;;;;;9.10;100.00;101406.19;5008929;28;20049;-61
2023/04/29 00:35:33;;;;;;;21.20;19.08;;;;;;;9.09;100.00;101402.63;5009301;28;20042;-60
2023/04/29 00:37:58;;;;;;;22.77;20.48;;;;;;;9.08;100.00;101403.66;5009054;28;20485;-61
2023/04/29 00:40:24;;;;;;;21.35;19.05;;;;;;;9.10;100.00;101419.91;5008350;28;20113;-61
2023/04/29 00:42:49;;;;;;;21.27;19.17;;;;;;;9.09;100.00;101410.00;5007413;28;20034;-61
2023/04/29 00:45:15;;;;;;;22.17;19.98;;;;;;;9.11;100.00;101413.34;5009738;28;20392;-61
2023/04/29 00:47:40;;;;;;;22.00;19.80;;;;;;;9.12;100.00;101414.19;5008574;28;20331;-61
2023/04/29 00:50:06;;;;;;;22.65;20.33;;;;;;;9.07;100.00;101417.56;5007699;28;20044;-61
2023/04/29 00:52:33;;;;;;;24.25;21.65;;;;;;;9.11;100.00;101418.84;5008461;28;20088;-61
2023/04/29 00:54:59;;;;;;;25.10;22.55;;;;;;;9.06;100.00;101421.34;5007751;28;20030;-61
2023/04/29 00:57:27;;;;;;;25.65;23.08;;;;;;;9.02;100.00;101420.94;5009372;28;20037;-62
2023/04/29 00:59:54;;;;;;;26.95;24.25;;;;;;;9.03;100.00;101421.78;5008536;28;20034;-62
2023/04/29 01:02:20;;;;;;;29.50;26.48;;;;;;;9.00;100.00;101417.56;5006131;28;20034;-60
2023/04/29 01:04:45;;;;;;;29.00;25.92;;;;;;;8.99;100.00;101426.00;5007739;28;20029;-62
2023/04/29 01:07:33;;;;;;;29.65;26.52;;;;;;;9.03;100.00;101427.28;5006687;28;20105;-62
2023/04/29 01:10:14;;;;;;;30.83;27.67;;;;;;;9.06;100.00;101432.31;4998037;28;20030;-61
2023/04/29 01:12:49;;;;;;;29.20;26.30;;;;;;;8.99;100.00;101428.72;5005325;28;20026;-61
2023/04/29 01:15:21;;;;;;;29.30;26.30;;;;;;;8.94;100.00;101434.81;5008940;28;20140;-61
2023/04/29 01:17:54;;;;;;;30.05;26.95;;;;;;;8.93;100.00;101440.50;5007942;28;20039;-61
2023/04/29 01:20:21;;;;;;;29.98;26.67;;;;;;;8.91;100.00;101445.34;5006239;28;20053;-61
2023/04/29 01:22:47;;;;;;;29.75;26.75;;;;;;;8.91;100.00;101439.84;5007456;28;20408;-61
2023/04/29 01:25:13;;;;;;;30.38;27.27;;;;;;;8.93;100.00;101444.09;5006901;28;20026;-60
2023/04/29 01:27:51;;;;;;;29.02;26.02;;;;;;;8.92;100.00;101447.00;5007576;28;20091;-62
2023/04/29 01:30:28;;;;;;;;;;;;;;;9.00;100.00;101449.59;5008361;28;20041;-62
2023/04/29 01:33:27;;;;;;;29.77;26.77;;;;;;;8.93;100.00;101446.00;5005242;28;19918;-61
2023/04/29 01:36:15;;;;;;;28.33;25.17;;;;;;;8.91;100.00;101454.41;5006006;28;20030;-62
2023/04/29 01:38:51;;;;;;;28.38;25.38;;;;;;;8.93;100.00;101456.94;5008356;28;20048;-61
2023/04/29 01:41:26;;;;;;;29.75;26.55;;;;;;;8.94;100.00;101451.25;5005168;28;20037;-61
2023/04/29 01:43:54;;;;;;;28.63;25.65;;;;;;;8.93;100.00;101456.94;5007525;28;20038;-62
2023/04/29 01:46:20;;;;;;;27.85;24.92;;;;;;;8.94;100.00;101458.63;5006896;28;20021;-61
2023/04/29 01:48:45;;;;;;;28.00;25.17;;;;;;;8.94;100.00;101455.91;5009590;28;20034;-62
2023/04/29 01:51:11;;;;;;;27.83;24.83;;;;;;;8.92;100.00;101456.09;5003697;28;20036;-60
2023/04/29 01:53:36;;;;;;;27.95;25.10;;;;;;;8.92;100.00;101455.25;5008092;28;20119;-61
2023/04/29 01:56:02;;;;;;;27.20;24.38;;;;;;;8.91;100.00;101454.41;5006459;28;20149;-61
2023/04/29 01:58:28;;;;;;;29.02;26.00;;;;;;;8.94;100.00;101455.91;5007332;28;20725;-61
2023/04/29 02:00:54;;;;;;;28.75;25.73;;;;;;;8.96;100.00;101459.25;5004533;28;20436;-61
2023/04/29 02:03:19;;;;;;;28.40;25.40;;;;;;;8.95;100.00;101457.56;5007125;28;20465;-61
2023/04/29 02:05:44;;;;;;;29.67;26.55;;;;;;;8.95;100.00;101465.78;5007504;28;20077;-61
2023/04/29 02:08:10;;;;;;;30.85;27.48;;;;;;;8.93;100.00;101465.16;5006997;28;20029;-61
2023/04/29 02:10:35;;;;;;;29.88;26.67;;;;;;;8.92;100.00;101467.06;5007705;28;20057;-61
2023/04/29 02:13:00;;;;;;;31.63;28.23;;;;;;;8.90;100.00;101477.38;5005467;28;20110;-62
2023/04/29 02:15:27;;;;;;;33.13;29.52;;;;;;;8.89;100.00;101478.41;5007184;28;20030;-61
2023/04/29 02:17:53;;;;;;;32.20;28.70;;;;;;;8.88;100.00;101476.75;5004923;28;20469;-62
2023/04/29 02:20:18;;;;;;;33.22;29.30;;;;;;;8.87;100.00;101474.19;5007294;28;20081;-61
2023/04/29 02:22:44;;;;;;;33.78;30.00;;;;;;;8.87;100.00;101479.66;5005959;28;20493;-61
2023/04/29 02:25:10;;;;;;;33.90;29.20;;;;;;;8.84;100.00;101483.66;5007842;28;20107;-61
2023/04/29 02:27:35;;;;;;;31.60;28.17;;;;;;;8.82;100.00;101486.63;5006706;28;20569;-61
2023/04/29 02:30:01;;;;;;;33.33;29.73;;;;;;;8.84;100.00;101489.97;5008001;28;20061;-61
2023/04/29 02:32:26;;;;;;;34.88;29.88;;;;;;;8.81;100.00;101492.28;5005702;28;20171;-61
2023/04/29 02:34:51;;;;;;;34.67;29.77;;;;;;;8.78;100.00;101485.31;5006574;28;20021;-61
2023/04/29 02:37:17;;;;;;;33.95;29.40;;;;;;;8.77;100.00;101486.38;5007147;28;20108;-61
2023/04/29 02:39:42;;;;;;;35.50;28.88;;;;;;;8.75;100.00;101502.16;5006575;28;20062;-61
2023/04/29 02:42:07;;;;;;;35.42;29.45;;;;;;;8.73;100.00;101498.78;5006969;28;20133;-61
2023/04/29 02:44:33;;;;;;;34.53;29.55;;;;;;;8.72;100.00;101501.72;5005251;28;20029;-61
2023/04/29 02:46:58;;;;;;;33.97;29.42;;;;;;;8.72;100.00;101507.22;5037265;22;20094;-61
2023/04/29 02:49:23;;;;;;;38.55;31.33;;;;;;;8.74;100.00;101507.84;4966574;28;20070;-61
2023/04/29 02:51:48;;;;;;;39.33;30.88;;;;;;;8.72;100.00;101512.69;4965594;28;20477;-61
2023/04/29 02:54:15;;;;;;;39.80;31.60;;;;;;;8.69;100.00;101518.56;4976815;28;20065;-60
2023/04/29 02:56:40;;;;;;;37.65;31.42;;;;;;;8.67;100.00;101521.50;4987895;28;20029;-61
2023/04/29 02:59:06;;;;;;;34.75;30.88;;;;;;;8.66;100.00;101524.44;4979439;28;20031;-61
2023/04/29 03:01:31;;;;;;;36.90;31.08;;;;;;;8.68;100.00;101525.09;4986944;28;20031;-61
2023/04/29 03:03:57;;;;;;;38.72;30.77;;;;;;;8.68;100.00;101525.94;4964044;28;20114;-61
2023/04/29 03:06:22;;;;;;;39.33;29.95;;;;;;;8.69;100.00;101524.03;4982505;28;20696;-61
2023/04/29 03:08:47;;;;;;;37.38;29.90;;;;;;;8.68;100.00;101527.81;4986119;28;20034;-60
2023/04/29 03:11:13;;;;;;;39.17;30.88;;;;;;;8.68;100.00;101536.03;4986952;28;20100;-61
2023/04/29 03:13:38;;;;;;;36.55;29.90;;;;;;;8.67;100.00;101529.72;4982164;28;20479;-61
2023/04/29 03:16:03;;;;;;;33.45;28.23;;;;;;;8.66;100.00;101536.22;4968461;28;20042;-61
2023/04/29 03:18:29;;;;;;;34.13;27.60;;;;;;;8.67;100.00;101532.47;4978026;28;20030;-61
2023/04/29 03:20:54;;;;;;;34.08;28.55;;;;;;;8.68;100.00;101539.63;4977599;28;20030;-61
2023/04/29 03:23:19;;;;;;;33.58;28.73;;;;;;;8.69;100.00;101541.31;4985368;28;20477;-61
2023/04/29 03:25:45;;;;;;;35.35;27.98;;;;;;;8.68;100.00;101541.53;4984100;28;20030;-61
2023/04/29 03:28:10;;;;;;;33.97;26.85;;;;;;;8.68;100.00;101541.53;4985971;28;20069;-61
2023/04/29 03:30:35;;;;;;;33.83;26.85;;;;;;;8.69;100.00;101545.94;4985201;28;20022;-62
2023/04/29 03:33:00;;;;;;;33.90;27.38;;;;;;;8.69;100.00;101541.31;4986374;28;20485;-61
2023/04/29 03:35:26;;;;;;;32.60;25.83;;;;;;;8.69;100.00;101540.47;4980840;28;20030;-61
2023/04/29 03:37:52;;;;;;;31.08;26.17;;;;;;;8.69;100.00;101548.69;4983023;28;20545;-61
2023/04/29 03:40:17;;;;;;;28.35;24.02;;;;;;;8.67;100.00;101548.88;4981368;28;20031;-61
2023/04/29 03:42:43;;;;;;;26.48;22.80;;;;;;;8.66;100.00;101551.81;4985562;28;20041;-61
2023/04/29 03:45:11;;;;;;;25.90;22.92;;;;;;;8.66;100.00;101555.38;4969011;28;20031;-61
2023/04/29 03:47:37;;;;;;;26.55;23.35;;;;;;;8.68;100.00;101553.31;4952113;28;20047;-61
2023/04/29 03:50:03;;;;;;;25.45;22.55;;;;;;;8.67;100.00;101551.63;4985364;28;20036;-61
2023/04/29 03:52:28;;;;;;;27.27;22.05;;;;;;;8.69;100.00;101552.25;4970111;28;20066;-61
2023/04/29 03:54:53;;;;;;;26.80;22.95;;;;;;;8.70;100.00;101550.38;4985605;28;20076;-61
2023/04/29 03:57:19;;;;;;;26.30;22.20;;;;;;;8.72;100.00;101557.34;4985622;28;20468;-61
2023/04/29 03:59:48;;;;;;;26.05;22.73;;;;;;;8.72;100.00;101560.09;4985282;28;20034;-61
2023/04/29 04:02:14;;;;;;;25.23;21.13;;;;;;;8.70;100.00;101559.44;4979211;28;20030;-61
2023/04/29 04:04:39;;;;;;;26.50;22.35;;;;;;;8.72;100.00;101556.50;4972315;28;20026;-60
2023/04/29 04:07:05;;;;;;;25.83;22.33;;;;;;;8.69;100.00;101560.47;4986812;28;20081;-61
2023/04/29 04:09:32;;;;;;;24.35;21.70;;;;;;;8.71;100.00;101571.22;4971050;28;20123;-61
2023/04/29 04:11:57;;;;;;;28.60;22.40;;;;;;;8.71;100.00;101566.59;4973299;28;20085;-62
2023/04/29 04:14:23;;;;;;;25.15;21.58;;;;;;;8.70;100.00;101572.28;4970318;28;20031;-61
2023/04/29 04:16:49;;;;;;;23.80;21.15;;;;;;;8.70;100.00;101573.13;4966818;28;20022;-61
2023/04/29 04:19:15;;;;;;;26.95;23.20;;;;;;;8.69;100.00;101568.69;4985996;28;20038;-60
2023/04/29 04:21:40;;;;;;;24.42;21.83;;;;;;;8.68;100.00;101572.50;4983098;28;20082;-60
2023/04/29 04:24:05;;;;;;;25.65;22.63;;;;;;;8.70;100.00;101575.00;4984185;28;20030;-59
2023/04/29 04:26:31;;;;;;;25.50;22.13;;;;;;;8.71;100.00;101576.69;4989299;28;20026;-61
2023/04/29 04:28:56;;;;;;;25.45;22.25;;;;;;;8.70;100.00;101573.13;4989994;28;20077;-61
2023/04/29 04:31:21;;;;;;;25.50;22.35;;;;;;;8.70;100.00;101578.59;4983309;28;20065;-61
2023/04/29 04:33:47;;;;;;;24.67;21.10;;;;;;;8.69;100.00;101579.66;4976636;28;20237;-60
2023/04/29 04:36:12;;;;;;;24.75;22.08;;;;;;;8.72;100.00;101598.44;4988891;28;20030;-61
2023/04/29 04:38:37;;;;;;;26.65;22.48;;;;;;;8.72;100.00;101594.84;4980792;28;20685;-61
2023/04/29 04:41:06;;;;;;;26.98;22.90;;;;;;;8.72;100.00;101595.69;4989652;28;20061;-61
2023/04/29 04:43:31;;;;;;;25.77;23.08;;;;;;;8.76;100.00;101602.44;4975868;28;20092;-60
2023/04/29 04:45:56;;;;;;;24.35;21.75;;;;;;;8.74;100.00;101600.97;4989139;28;20018;-61
2023/04/29 04:48:22;;;;;;;24.58;21.45;;;;;;;8.75;100.00;101611.72;4987484;28;20093;-61
2023/04/29 04:50:47;;;;;;;24.38;21.77;;;;;;;8.76;100.00;101607.06;4979246;28;20343;-59
2023/04/29 04:53:12;;;;;;;25.05;22.38;;;;;;;8.76;100.00;101618.88;4983196;28;20096;-61
2023/04/29 04:55:37;;;;;;;23.17;20.67;;;;;;;8.78;100.00;101625.00;4969621;28;20046;-60
2023/04/29 04:58:03;;;;;;;25.00;21.23;;;;;;;8.79;100.00;101628.59;4969723;28;20477;-61
2023/04/29 05:00:28;;;;;;;24.90;21.67;;;;;;;8.82;100.00;101639.16;4979039;28;20041;-61
2023/04/29 05:02:53;;;;;;;26.17;21.38;;;;;;;8.81;100.00;101640.19;4982470;28;20031;-61
2023/04/29 05:05:19;;;;;;;24.95;22.00;;;;;;;8.80;100.00;101636.59;4961425;28;20043;-60
2023/04/29 05:07:44;;;;;;;23.92;21.13;;;;;;;8.80;100.00;101646.72;4987657;28;20058;-61
2023/04/29 05:10:10;;;;;;;25.13;21.52;;;;;;;8.80;100.00;101642.09;4988360;28;20472;-61
2023/04/29 05:12:35;;;;;;;23.85;20.25;;;;;;;8.80;100.00;101647.56;4975836;28;20049;-62
2023/04/29 05:15:01;;;;;;;22.98;19.80;;;;;;;8.82;100.00;101656.44;4984688;28;20059;-60
2023/04/29 05:17:26;;;;;;;22.67;19.05;;;;;;;8.81;100.00;101656.63;4967542;28;20109;-60
2023/04/29 05:19:51;;;;;;;22.80;19.63;;;;;;;8.83;100.00;101651.81;4985307;28;20037;-60
2023/04/29 05:22:17;;;;;;;21.65;19.40;;;;;;;8.83;100.00;101647.16;4970189;28;20023;-61
2023/04/29 05:24:42;;;;;;;21.75;19.60;;;;;;;8.86;100.00;101654.13;4980335;28;20041;-61
2023/04/29 05:27:07;;;;;;;21.38;19.08;;;;;;;8.87;100.00;101663.19;4989065;28;20027;-61
2023/04/29 05:29:33;;;;;;;21.67;19.25;;;;;;;8.87;100.00;101669.53;4988287;28;20034;-61
2023/04/29 05:31:58;;;;;;;21.33;18.92;;;;;;;8.90;100.00;101665.53;4982585;28;20058;-61
2023/04/29 05:34:23;;;;;;;21.52;19.23;;;;;;;8.90;100.00;101671.88;4984138;28;20076;-60
2023/04/29 05:36:49;;;;;;;21.77;19.48;;;;;;;8.90;100.00;101671.03;4986319;28;20026;-61
2023/04/29 05:39:14;;;;;;;21.38;18.23;;;;;;;8.91;100.00;101672.72;4973734;28;20339;-60
2023/04/29 05:41:39;;;;;;;20.70;18.70;;;;;;;8.89;100.00;101672.06;4968619;28;20034;-61
2023/04/29 05:44:05;;;;;;;20.95;18.42;;;;;;;8.91;100.00;101681.78;4968307;28;20436;-61
2023/04/29 05:46:30;;;;;;;21.98;18.50;;;;;;;8.91;100.00;101676.28;4964981;28;20451;-60
2023/04/29 05:48:55;;;;;;;21.55;19.25;;;;;;;8.93;100.00;101682.44;4966681;28;20031;-61
2023/04/29 05:51:21;;;;;;;20.60;18.40;;;;;;;8.96;100.00;101683.91;4970312;28;20027;-61
2023/04/29 05:53:46;;;;;;;20.92;18.73;;;;;;;8.97;100.00;101686.47;4984385;28;20440;-61
2023/04/29 05:56:11;;;;;;;20.40;18.20;;;;;;;8.95;100.00;101693.19;4978944;28;20034;-60
2023/04/29 05:58:37;;;;;;;20.60;18.35;;;;;;;8.98;100.00;101690.91;4986314;28;20556;-61
2023/04/29 06:01:02;;;;;;;21.00;18.90;;;;;;;9.00;100.00;101691.53;4969182;28;20051;-61
2023/04/29 06:03:28;;;;;;;20.48;18.23;;;;;;;9.01;100.00;101704.19;4978839;28;20051;-60
2023/04/29 06:05:54;;;;;;;20.77;18.67;;;;;;;9.02;100.00;101718.72;4967683;28;20128;-61
2023/04/29 06:08:20;;;;;;;20.25;18.08;;;;;;;9.01;100.00;101714.31;4985851;28;20026;-61
2023/04/29 06:10:45;;;;;;;21.33;18.10;;;;;;;9.01;100.00;101711.56;4985374;28;20034;-61
2023/04/29 06:13:11;;;;;;;21.38;18.25;;;;;;;9.02;100.00;101716.88;4964210;28;20034;-61
2023/04/29 06:15:36;;;;;;;19.80;17.55;;;;;;;9.08;100.00;101723.44;4990407;28;20031;-60
2023/04/29 06:18:01;;;;;;;21.95;18.90;;;;;;;9.11;100.00;101720.28;4975207;28;20034;-61
2023/04/29 06:20:26;;;;;;;21.17;18.90;;;;;;;9.17;100.00;101718.63;4986431;28;20049;-61
2023/04/29 06:22:52;;;;;;;19.80;17.80;;;;;;;9.20;100.00;101721.81;4987918;28;20405;-61
2023/04/29 06:25:17;;;;;;;21.33;17.70;;;;;;;9.26;100.00;101723.75;4987809;28;20114;-61
2023/04/29 06:27:42;;;;;;;20.33;18.20;;;;;;;9.29;100.00;101726.13;4972352;28;20033;-62
2023/04/29 06:30:08;;;;;;;20.25;18.13;;;;;;;9.32;100.00;101739.41;4949018;28;20126;-61
2023/04/29 06:32:33;;;;;;;18.90;17.00;;;;;;;9.40;100.00;101740.31;4949386;28;20023;-61
2023/04/29 06:34:59;;;;;;;19.50;17.42;;;;;;;9.45;100.00;101735.91;4949565;28;20493;-61
2023/04/29 06:37:24;;;;;;;19.85;16.80;;;;;;;9.53;100.00;101741.25;4956683;28;20042;-61
2023/04/29 06:39:49;;;;;;;19.48;17.23;;;;;;;9.59;100.00;101745.91;4968817;28;20457;-62
2023/04/29 06:42:15;;;;;;;18.83;16.63;;;;;;;9.67;100.00;101750.38;4968358;28;20303;-61
2023/04/29 06:44:40;;;;;;;19.50;17.48;;;;;;;9.75;100.00;101750.22;4968795;28;20042;-61
2023/04/29 06:47:05;;;;;;;19.20;17.20;;;;;;;9.83;100.00;101754.66;4969791;28;20437;-61
2023/04/29 06:49:30;;;;;;;18.42;16.38;;;;;;;9.91;100.00;101760.00;4968263;28;20027;-62
2023/04/29 06:51:56;;;;;;;18.52;16.80;;;;;;;9.96;100.00;101767.63;4968243;28;20093;-61
2023/04/29 06:54:21;;;;;;;18.40;16.50;;;;;;;10.00;100.00;101769.75;4967243;28;20038;-61
2023/04/29 06:56:47;;;;;;;17.52;15.55;;;;;;;10.01;100.00;101771.44;4968056;28;20018;-61
2023/04/29 06:59:14;;;;;;;16.95;15.23;;;;;;;10.02;100.00;101780.53;4968373;28;20035;-62
2023/04/29 07:01:39;;;;;;;17.60;15.57;;;;;;;10.00;100.00;101771.66;4967386;28;20027;-62
2023/04/29 07:04:05;;;;;;;17.45;15.65;;;;;;;10.06;100.00;101779.06;4968729;28;20045;-61
2023/04/29 07:06:30;;;;;;;16.45;14.68;;;;;;;10.06;100.00;101779.06;4966556;28;20025;-62
2023/04/29 07:08:55;;;;;;;17.23;15.50;;;;;;;10.07;100.00;101784.34;4967663;28;20077;-61
2023/04/29 07:11:23;;;;;;;16.52;14.85;;;;;;;10.06;100.00;101790.03;4967657;28;20030;-62
2023/04/29 07:13:49;;;;;;;15.38;13.93;;;;;;;10.10;100.00;101799.56;4967680;28;20030;-62
2023/04/29 07:16:16;;;;;;;15.38;13.88;;;;;;;10.14;100.00;101809.09;4966599;28;20038;-59
2023/04/29 07:18:42;;;;;;;15.88;14.27;;;;;;;10.21;100.00;101801.72;4967852;28;20027;-61
2023/04/29 07:21:07;;;;;;;15.57;13.98;;;;;;;10.25;100.00;101803.03;4967404;28;20033;-62
2023/04/29 07:23:32;;;;;;;15.63;14.02;;;;;;;10.34;100.00;101804.56;4966925;28;20632;-63
2023/04/29 07:25:58;;;;;;;15.98;14.43;;;;;;;10.48;100.00;101810.09;4967375;28;20030;-60
2023/04/29 07:28:23;;;;;;;15.70;14.20;;;;;;;10.54;100.00;101806.50;4966295;28;20134;-61
2023/04/29 07:30:48;;;;;;;15.75;14.07;;;;;;;10.62;100.00;101809.06;4964173;28;20027;-61
2023/04/29 07:33:14;;;;;;;14.45;13.05;;;;;;;10.70;100.00;101816.28;4965099;28;20766;-61
2023/04/29 07:35:42;;;;;;;16.08;13.77;;;;;;;10.79;100.00;101813.13;4964984;28;20066;-60
2023/04/29 07:38:07;;;;;;;14.73;13.35;;;;;;;10.86;100.00;101822.22;4964841;28;20062;-60
2023/04/29 07:40:32;;;;;;;14.48;12.95;;;;;;;10.85;100.00;101817.81;4967443;28;20066;-60
2023/04/29 07:42:57;;;;;;;14.73;13.32;;;;;;;10.88;100.00;101827.50;4969043;28;20066;-60
2023/04/29 07:45:23;;;;;;;13.82;12.32;;;;;;;10.89;100.00;101830.03;4968093;28;20101;-60
2023/04/29 07:47:48;;;;;;;14.55;12.82;;;;;;;11.00;100.00;101822.22;4968643;28;20502;-61
2023/04/29 07:50:13;;;;;;;14.10;12.60;;;;;;;11.18;100.00;101822.47;4969089;28;20101;-60
2023/04/29 07:52:39;;;;;;;14.77;13.30;;;;;;;11.31;100.00;101830.75;4966919;28;20270;-61
2023/04/29 07:55:04;;;;;;;15.02;12.45;;;;;;;11.33;100.00;101833.25;4969298;28;20034;-61
2023/04/29 07:57:30;;;;;;;12.77;11.48;;;;;;;11.29;100.00;101837.50;4971053;28;20473;-61
2023/04/29 07:59:55;;;;;;;13.45;12.05;;;;;;;11.26;100.00;101841.53;4968989;28;20035;-61
2023/04/29 08:02:20;;;;;;;13.77;12.27;;;;;;;11.24;100.00;101845.53;4970841;28;20031;-61
2023/04/29 08:04:45;;;;;;;13.38;11.98;;;;;;;11.21;100.00;101838.56;4985806;28;20030;-60
2023/04/29 08:07:11;;;;;;;13.77;12.38;;;;;;;11.18;100.00;101844.47;4990080;28;20342;-60
2023/04/29 08:09:37;;;;;;;13.93;12.40;;;;;;;11.25;100.00;101847.22;4989930;28;20065;-61
2023/04/29 08:12:02;;;;;;;13.43;11.98;;;;;;;11.37;100.00;101849.13;4990066;28;20030;-59
2023/04/29 08:14:27;;;;;;;12.82;11.43;;;;;;;11.50;100.00;101847.44;4990084;28;20022;-61
2023/04/29 08:16:54;;;;;;;13.23;11.82;;;;;;;11.61;100.00;101855.91;4975642;28;20181;-61
2023/04/29 08:19:20;;;;;;;12.60;11.25;;;;;;;11.61;100.00;101852.31;4968004;28;20034;-61
2023/04/29 08:21:46;;;;;;;14.43;12.45;;;;;;;11.63;100.00;101853.78;4968122;28;20038;-61
2023/04/29 08:24:12;;;;;;;13.18;11.75;;;;;;;11.68;100.00;101856.72;4967979;28;20389;-61
2023/04/29 08:26:39;;;;;;;13.95;11.48;;;;;;;11.82;100.00;101856.75;4967801;28;20448;-61
2023/04/29 08:29:04;;;;;;;13.07;11.77;;;;;;;11.97;100.00;101859.28;4982734;28;20030;-61
2023/04/29 08:31:30;;;;;;;12.68;11.38;;;;;;;12.16;100.00;101856.44;4966883;28;20093;-61
2023/04/29 08:33:57;;;;;;;13.85;11.63;;;;;;;12.45;98.85;101857.81;4968188;28;20081;-61
2023/04/29 08:36:22;;;;;;;13.27;11.88;;;;;;;12.71;98.58;101856.84;4967007;28;20042;-61
2023/04/29 08:38:51;;;;;;;12.80;11.20;;;;;;;12.88;97.39;101859.13;4968203;28;20034;-62
2023/04/29 08:41:16;;;;;;;13.02;11.20;;;;;;;13.10;96.18;101859.59;4968058;28;20030;-61
2023/04/29 08:43:42;;;;;;;12.25;10.70;;;;;;;13.33;94.66;101864.53;4967728;28;20109;-61
2023/04/29 08:46:08;;;;;;;12.43;11.13;;;;;;;13.49;93.04;101864.84;4966921;28;20121;-61
2023/04/29 08:48:36;;;;;;;13.05;11.75;;;;;;;13.36;93.70;101872.38;4967589;28;20031;-61
2023/04/29 08:51:01;;;;;;;13.48;11.13;;;;;;;13.44;94.18;101872.97;4966973;28;20106;-61
2023/04/29 08:53:27;;;;;;;14.10;11.15;;;;;;;13.65;93.02;101873.63;4967374;28;20210;-61
2023/04/29 08:55:53;;;;;;;14.38;10.35;;;;;;;13.61;91.54;101881.50;4967846;28;20029;-61
2023/04/29 08:58:19;;;;;;;11.27;10.07;;;;;;;13.49;91.06;101869.53;4967081;28;20023;-61
2023/04/29 09:00:45;;;;;;;13.77;10.85;;;;;;;13.44;91.12;101870.19;4967135;28;20054;-61
2023/04/29 09:03:22;;;;;;;12.25;10.52;;;;;;;13.67;94.23;101880.59;4968283;28;20018;-61
2023/04/29 09:05:51;;;;;;;11.70;10.50;;;;;;;13.92;90.14;101876.97;4967065;28;20027;-62
2023/04/29 09:08:16;;;;;;;;;;;;;;;14.45;90.91;101874.47;4968470;28;20019;-62
2023/04/29 09:10:42;;;;;;;12.00;10.30;;;;;;;14.53;86.66;101871.41;4967342;28;20301;-61
2023/04/29 09:13:08;;;;;;;11.57;10.35;;;;;;;14.50;87.09;101877.41;4966900;28;20121;-61
2023/04/29 09:15:39;;;;;;;11.25;10.05;;;;;;;14.34;87.44;101872.47;4965932;28;20089;-61
2023/04/29 09:18:04;;;;;;;12.35;10.02;;;;;;;14.58;86.46;101878.16;4967535;28;20023;-61
2023/04/29 09:20:30;;;;;;;11.05;9.23;;;;;;;14.64;81.65;101883.59;4966849;28;20034;-61
2023/04/29 09:22:58;;;;;;;11.80;9.23;;;;;;;15.30;80.12;101881.81;4967090;28;20335;-61
2023/04/29 09:25:26;;;;;;;9.85;8.70;;;;;;;17.97;73.61;101873.25;4967383;28;20082;-62
2023/04/29 09:27:51;;;;;;;11.73;9.50;;;;;;;20.32;65.83;101885.69;4966817;28;20035;-61
2023/04/29 09:30:18;;;;;;;9.98;7.30;;;;;;;21.16;55.42;101881.03;4966527;28;20026;-62
2023/04/29 09:32:44;;;;;;;9.13;7.57;;;;;;;19.79;59.46;101883.97;4967492;28;20031;-61
2023/04/29 09:35:27;;;;;;;10.10;7.82;;;;;;;18.14;67.69;101883.22;4966785;28;20026;-61
2023/04/29 09:37:53;;;;;;;8.75;7.38;;;;;;;17.00;69.33;101880.75;4966585;28;20363;-61
2023/04/29 09:40:29;;;;;;;10.05;8.13;;;;;;;17.14;72.88;101892.38;4967618;28;20109;-62
2023/04/29 09:42:54;;;;;;;10.18;8.02;;;;;;;19.23;63.52;101875.94;4972386;28;20080;-61
2023/04/29 09:45:34;;;;;;;8.65;6.97;;;;;;;20.91;60.16;101887.38;4987719;28;20331;-61
2023/04/29 09:48:03;;;;;;;9.70;7.47;;;;;;;19.94;57.78;101895.25;4988170;28;20062;-61
2023/04/29 09:50:30;;;;;;;9.32;7.53;;;;;;;19.30;57.18;101889.66;4988340;28;20157;-61
2023/04/29 09:52:55;;;;;;;10.02;8.38;;;;;;;18.27;61.92;101903.44;4988300;28;20440;-61
2023/04/29 09:55:20;;;;;;;10.10;7.80;;;;;;;17.31;64.18;101895.19;4973479;28;20057;-62
2023/04/29 09:57:46;;;;;;;10.00;7.78;;;;;;;18.87;62.83;101888.66;4969299;28;20023;-61
2023/04/29 10:00:14;;;;;;;9.45;7.75;;;;;;;20.92;58.59;101894.63;4968549;28;20035;-61
2023/04/29 10:02:48;;;;;;;9.02;7.22;;;;;;;20.85;55.36;101902.44;4967983;28;20532;-62
2023/04/29 10:05:15;;;;;;;10.18;7.50;;;;;;;19.31;57.76;101908.03;4969581;28;20479;-62
2023/04/29 10:07:41;;;;;;;9.13;8.13;;;;;;;20.94;58.81;101911.97;4968768;28;20023;-62
2023/04/29 10:10:09;;;;;;;8.98;7.25;;;;;;;22.58;51.79;101902.47;4968939;28;20026;-62
2023/04/29 10:12:35;;;;;;;9.27;6.63;;;;;;;24.51;49.72;101903.00;4968454;28;20031;-62
2023/04/29 10:15:11;;;;;;;8.90;7.07;;;;;;;23.87;45.96;101900.56;4968072;28;20038;-63
2023/04/29 10:17:50;;;;;;;9.02;7.13;;;;;;;21.56;53.71;101905.41;4968305;28;20074;-62
2023/04/29 10:20:22;;;;;;;8.73;7.07;;;;;;;19.52;55.49;101912.72;4968979;28;20444;-63
2023/04/29 10:22:49;;;;;;;8.73;7.55;;;;;;;18.23;59.19;101916.16;4968318;28;20034;-63
2023/04/29 10:25:16;;;;;;;8.68;7.03;;;;;;;17.45;62.62;101917.94;4969039;28;20086;-63
2023/04/29 10:27:43;;;;;;;9.40;7.40;;;;;;;16.90;62.25;101924.94;4968535;28;20058;-62
2023/04/29 10:30:12;;;;;;;9.23;7.80;;;;;;;16.64;66.58;101920.78;4967533;28;20446;-62
2023/04/29 10:32:40;;;;;;;9.32;7.63;;;;;;;16.60;68.70;101920.41;4968382;28;20038;-62
2023/04/29 10:35:08;;;;;;;8.88;7.97;;;;;;;16.42;67.92;101922.50;4968186;28;20034;-62
2023/04/29 10:37:34;;;;;;;;;;;;;;;16.61;69.97;101921.25;4968070;28;20138;-63
2023/04/29 10:40:16;;;;;;;9.88;7.25;;;;;;;16.04;69.13;101929.41;4968385;28;20074;-62
2023/04/29 10:42:46;;;;;;;9.90;7.22;;;;;;;15.71;70.50;101921.66;4967860;28;20027;-63
2023/04/29 10:45:36;;;;;;;9.48;6.72;;;;;;;15.64;70.12;101927.31;4966574;28;20347;-63
2023/04/29 10:48:01;;;;;;;8.18;7.25;;;;;;;15.57;67.96;101924.63;4967417;28;20047;-63
2023/04/29 10:50:36;;;;;;;8.00;6.83;;;;;;;15.46;69.23;101928.22;4967612;28;20026;-63
2023/04/29 10:53:02;;;;;;;8.98;7.03;;;;;;;15.37;68.23;101929.63;4957551;28;20673;-63
2023/04/29 10:55:28;;;;;;;8.43;6.82;;;;;;;15.26;66.89;101924.91;4965596;28;20574;-64
2023/04/29 10:57:57;;;;;;;9.90;7.47;;;;;;;15.04;75.56;101936.47;4966144;28;20022;-63
2023/04/29 11:00:29;;;;;;;10.43;7.32;;;;;;;14.95;75.30;101928.72;4962672;28;20097;-63
2023/04/29 11:02:57;;;;;;;8.70;6.95;;;;;;;14.77;72.78;101933.22;4973147;28;20030;-63
2023/04/29 11:05:30;;;;;;;8.90;7.50;;;;;;;14.75;73.53;101940.03;4978313;28;20023;-67
2023/04/29 11:08:12;;;;;;;9.23;7.18;;;;;;;14.90;75.84;101931.34;4964588;28;20042;-63
2023/04/29 11:10:42;;;;;;;8.30;7.00;;;;;;;15.11;72.94;101932.78;4967527;28;20041;-64